sensor_id;sensor_type;location;lat;lon;timestamp;P1;durP1;ratioP1;P2;durP2;ratioP2
19521;SDS011;9905;52.126;5.596;2023-11-19T00:01:33;45.42;;;41.65;;
19521;SDS011;9905;52.126;5.596;2023-11-19T00:03:59;46.15;;;42.10;;
19521;SDS011;9905;52.126;5.596;2023-11-19T00:06:26;44.85;;;41.03;;
19521;SDS011;9905;52.126;5.596;2023-11-19T00:08:53;46.58;;;42.47;;
19521;SDS011;9905;52.126;5.596;2023-11-19T00:11:20;44.20;;;40.40;;
19521;SDS011;9905;52.126;5.596;2023-11-19T00:13:47;47.25;;;42.63;;
19521;SDS011;9905;52.126;5.596;2023-11-19T00:16:15;46.28;;;42.25;;
19521;SDS011;9905;52.126;5.596;2023-11-19T00:18:42;43.78;;;40.03;;
19521;SDS011;9905;52.126;5.596;2023-11-19T00:21:09;46.00;;;41.95;;
19521;SDS011;9905;52.126;5.596;2023-11-19T00:23:36;45.20;;;41.90;;
19521;SDS011;9905;52.126;5.596;2023-11-19T00:26:03;43.35;;;39.22;;
19521;SDS011;9905;52.126;5.596;2023-11-19T00:28:31;43.08;;;39.50;;
19521;SDS011;9905;52.126;5.596;2023-11-19T00:30:58;43.63;;;40.22;;
19521;SDS011;9905;52.126;5.596;2023-11-19T00:33:27;42.58;;;39.10;;
19521;SDS011;9905;52.126;5.596;2023-11-19T00:35:52;41.88;;;38.42;;
19521;SDS011;9905;52.126;5.596;2023-11-19T00:38:19;41.40;;;38.22;;
19521;SDS011;9905;52.126;5.596;2023-11-19T00:40:46;41.38;;;37.63;;
19521;SDS011;9905;52.126;5.596;2023-11-19T00:43:13;43.42;;;39.85;;
19521;SDS011;9905;52.126;5.596;2023-11-19T00:45:39;42.65;;;38.80;;
19521;SDS011;9905;52.126;5.596;2023-11-19T00:48:06;42.15;;;38.50;;
19521;SDS011;9905;52.126;5.596;2023-11-19T00:50:34;43.25;;;39.40;;
19521;SDS011;9905;52.126;5.596;2023-11-19T00:53:01;42.78;;;39.03;;
19521;SDS011;9905;52.126;5.596;2023-11-19T00:55:28;41.05;;;37.78;;
19521;SDS011;9905;52.126;5.596;2023-11-19T00:57:55;41.17;;;37.75;;
19521;SDS011;9905;52.126;5.596;2023-11-19T01:00:22;39.97;;;37.13;;
19521;SDS011;9905;52.126;5.596;2023-11-19T01:02:52;41.40;;;37.70;;
19521;SDS011;9905;52.126;5.596;2023-11-19T01:05:18;42.10;;;38.35;;
19521;SDS011;9905;52.126;5.596;2023-11-19T01:07:48;41.15;;;37.35;;
19521;SDS011;9905;52.126;5.596;2023-11-19T01:10:17;40.63;;;36.97;;
19521;SDS011;9905;52.126;5.596;2023-11-19T01:12:45;40.47;;;36.85;;
19521;SDS011;9905;52.126;5.596;2023-11-19T01:15:12;37.80;;;34.75;;
19521;SDS011;9905;52.126;5.596;2023-11-19T01:17:39;39.50;;;36.08;;
19521;SDS011;9905;52.126;5.596;2023-11-19T01:20:06;42.40;;;37.88;;
19521;SDS011;9905;52.126;5.596;2023-11-19T01:22:37;41.08;;;36.90;;
19521;SDS011;9905;52.126;5.596;2023-11-19T01:25:06;41.45;;;37.30;;
19521;SDS011;9905;52.126;5.596;2023-11-19T01:27:33;40.78;;;37.33;;
19521;SDS011;9905;52.126;5.596;2023-11-19T01:30:00;41.25;;;37.08;;
19521;SDS011;9905;52.126;5.596;2023-11-19T01:32:28;38.15;;;34.97;;
19521;SDS011;9905;52.126;5.596;2023-11-19T01:34:55;41.25;;;37.40;;
19521;SDS011;9905;52.126;5.596;2023-11-19T01:37:22;40.97;;;36.72;;
19521;SDS011;9905;52.126;5.596;2023-11-19T01:39:48;41.75;;;37.92;;
19521;SDS011;9905;52.126;5.596;2023-11-19T01:42:16;39.42;;;35.92;;
19521;SDS011;9905;52.126;5.596;2023-11-19T01:44:54;40.92;;;35.08;;
19521;SDS011;9905;52.126;5.596;2023-11-19T01:47:23;40.42;;;36.65;;
19521;SDS011;9905;52.126;5.596;2023-11-19T01:49:51;39.47;;;35.75;;
19521;SDS011;9905;52.126;5.596;2023-11-19T01:52:18;44.00;;;36.88;;
19521;SDS011;9905;52.126;5.596;2023-11-19T01:54:45;45.83;;;37.58;;
19521;SDS011;9905;52.126;5.596;2023-11-19T01:57:12;38.60;;;34.78;;
19521;SDS011;9905;52.126;5.596;2023-11-19T01:59:41;41.95;;;34.83;;
19521;SDS011;9905;52.126;5.596;2023-11-19T02:02:08;42.95;;;35.30;;
19521;SDS011;9905;52.126;5.596;2023-11-19T02:04:37;39.55;;;34.83;;
19521;SDS011;9905;52.126;5.596;2023-11-19T02:07:03;37.58;;;33.90;;
19521;SDS011;9905;52.126;5.596;2023-11-19T02:09:31;36.78;;;33.72;;
19521;SDS011;9905;52.126;5.596;2023-11-19T02:11:57;42.38;;;37.97;;
19521;SDS011;9905;52.126;5.596;2023-11-19T02:14:25;40.00;;;35.35;;
19521;SDS011;9905;52.126;5.596;2023-11-19T02:16:53;39.85;;;36.25;;
19521;SDS011;9905;52.126;5.596;2023-11-19T02:19:20;38.83;;;35.00;;
19521;SDS011;9905;52.126;5.596;2023-11-19T02:21:47;37.53;;;33.67;;
19521;SDS011;9905;52.126;5.596;2023-11-19T02:24:14;37.35;;;33.88;;
19521;SDS011;9905;52.126;5.596;2023-11-19T02:26:47;41.53;;;34.13;;
19521;SDS011;9905;52.126;5.596;2023-11-19T02:29:22;37.15;;;33.25;;
19521;SDS011;9905;52.126;5.596;2023-11-19T02:31:49;37.92;;;34.03;;
19521;SDS011;9905;52.126;5.596;2023-11-19T02:34:16;42.58;;;35.28;;
19521;SDS011;9905;52.126;5.596;2023-11-19T02:36:43;38.10;;;33.20;;
19521;SDS011;9905;52.126;5.596;2023-11-19T02:39:12;36.40;;;32.92;;
19521;SDS011;9905;52.126;5.596;2023-11-19T02:41:40;43.53;;;34.55;;
19521;SDS011;9905;52.126;5.596;2023-11-19T02:44:06;36.63;;;32.83;;
19521;SDS011;9905;52.126;5.596;2023-11-19T02:46:34;36.67;;;33.28;;
19521;SDS011;9905;52.126;5.596;2023-11-19T02:49:01;36.70;;;33.03;;
19521;SDS011;9905;52.126;5.596;2023-11-19T02:51:28;42.38;;;33.13;;
19521;SDS011;9905;52.126;5.596;2023-11-19T02:53:55;37.55;;;33.63;;
19521;SDS011;9905;52.126;5.596;2023-11-19T02:56:22;44.30;;;33.20;;
19521;SDS011;9905;52.126;5.596;2023-11-19T02:58:51;37.88;;;31.75;;
19521;SDS011;9905;52.126;5.596;2023-11-19T03:01:22;39.55;;;34.58;;
19521;SDS011;9905;52.126;5.596;2023-11-19T03:03:56;37.65;;;33.63;;
19521;SDS011;9905;52.126;5.596;2023-11-19T03:06:23;48.05;;;33.60;;
19521;SDS011;9905;52.126;5.596;2023-11-19T03:08:50;41.13;;;33.78;;
19521;SDS011;9905;52.126;5.596;2023-11-19T03:11:17;37.08;;;33.22;;
19521;SDS011;9905;52.126;5.596;2023-11-19T03:13:44;49.40;;;33.53;;
19521;SDS011;9905;52.126;5.596;2023-11-19T03:16:11;52.65;;;33.30;;
19521;SDS011;9905;52.126;5.596;2023-11-19T03:18:38;45.38;;;32.65;;
19521;SDS011;9905;52.126;5.596;2023-11-19T03:21:07;39.72;;;33.97;;
19521;SDS011;9905;52.126;5.596;2023-11-19T03:23:34;38.65;;;32.40;;
19521;SDS011;9905;52.126;5.596;2023-11-19T03:26:01;44.85;;;32.15;;
19521;SDS011;9905;52.126;5.596;2023-11-19T03:28:30;42.40;;;33.85;;
19521;SDS011;9905;52.126;5.596;2023-11-19T03:30:57;39.50;;;33.30;;
19521;SDS011;9905;52.126;5.596;2023-11-19T03:33:24;37.42;;;32.67;;
19521;SDS011;9905;52.126;5.596;2023-11-19T03:35:52;45.80;;;32.38;;
19521;SDS011;9905;52.126;5.596;2023-11-19T03:38:22;42.88;;;33.17;;
19521;SDS011;9905;52.126;5.596;2023-11-19T03:40:49;37.33;;;32.42;;
19521;SDS011;9905;52.126;5.596;2023-11-19T03:43:16;39.80;;;32.67;;
19521;SDS011;9905;52.126;5.596;2023-11-19T03:45:44;40.05;;;32.33;;
19521;SDS011;9905;52.126;5.596;2023-11-19T03:48:11;49.42;;;36.25;;
19521;SDS011;9905;52.126;5.596;2023-11-19T03:50:38;43.95;;;32.90;;
19521;SDS011;9905;52.126;5.596;2023-11-19T03:53:04;46.35;;;32.35;;
19521;SDS011;9905;52.126;5.596;2023-11-19T03:55:33;51.63;;;34.17;;
19521;SDS011;9905;52.126;5.596;2023-11-19T03:57:58;44.67;;;32.08;;
19521;SDS011;9905;52.126;5.596;2023-11-19T04:00:25;41.10;;;33.20;;
19521;SDS011;9905;52.126;5.596;2023-11-19T04:02:52;39.00;;;33.20;;
19521;SDS011;9905;52.126;5.596;2023-11-19T04:05:19;47.47;;;31.90;;
19521;SDS011;9905;52.126;5.596;2023-11-19T04:07:46;44.47;;;32.80;;
19521;SDS011;9905;52.126;5.596;2023-11-19T04:10:13;40.25;;;33.20;;
19521;SDS011;9905;52.126;5.596;2023-11-19T04:12:42;45.30;;;33.60;;
19521;SDS011;9905;52.126;5.596;2023-11-19T04:15:10;44.22;;;32.72;;
19521;SDS011;9905;52.126;5.596;2023-11-19T04:17:38;56.55;;;34.55;;
19521;SDS011;9905;52.126;5.596;2023-11-19T04:20:05;42.67;;;33.33;;
19521;SDS011;9905;52.126;5.596;2023-11-19T04:22:35;45.17;;;32.92;;
19521;SDS011;9905;52.126;5.596;2023-11-19T04:25:02;46.42;;;34.53;;
19521;SDS011;9905;52.126;5.596;2023-11-19T04:27:30;49.08;;;34.38;;
19521;SDS011;9905;52.126;5.596;2023-11-19T04:29:58;50.17;;;34.78;;
19521;SDS011;9905;52.126;5.596;2023-11-19T04:32:26;47.55;;;34.72;;
19521;SDS011;9905;52.126;5.596;2023-11-19T04:34:54;44.15;;;33.80;;
19521;SDS011;9905;52.126;5.596;2023-11-19T04:37:21;42.75;;;34.72;;
19521;SDS011;9905;52.126;5.596;2023-11-19T04:39:47;44.22;;;34.85;;
19521;SDS011;9905;52.126;5.596;2023-11-19T04:42:14;41.13;;;33.78;;
19521;SDS011;9905;52.126;5.596;2023-11-19T04:44:42;44.85;;;35.33;;
19521;SDS011;9905;52.126;5.596;2023-11-19T04:47:10;52.03;;;35.60;;
19521;SDS011;9905;52.126;5.596;2023-11-19T04:49:39;43.72;;;35.17;;
19521;SDS011;9905;52.126;5.596;2023-11-19T04:52:08;49.58;;;34.55;;
19521;SDS011;9905;52.126;5.596;2023-11-19T04:54:35;46.50;;;33.22;;
19521;SDS011;9905;52.126;5.596;2023-11-19T04:57:01;46.28;;;34.58;;
19521;SDS011;9905;52.126;5.596;2023-11-19T04:59:28;43.20;;;33.35;;
19521;SDS011;9905;52.126;5.596;2023-11-19T05:01:55;46.17;;;32.60;;
19521;SDS011;9905;52.126;5.596;2023-11-19T05:04:24;44.17;;;33.83;;
19521;SDS011;9905;52.126;5.596;2023-11-19T05:06:51;48.22;;;33.55;;
19521;SDS011;9905;52.126;5.596;2023-11-19T05:09:18;40.63;;;32.88;;
19521;SDS011;9905;52.126;5.596;2023-11-19T05:11:45;38.92;;;32.67;;
19521;SDS011;9905;52.126;5.596;2023-11-19T05:14:11;36.08;;;31.40;;
19521;SDS011;9905;52.126;5.596;2023-11-19T05:16:39;43.25;;;31.05;;
19521;SDS011;9905;52.126;5.596;2023-11-19T05:19:06;45.80;;;32.50;;
19521;SDS011;9905;52.126;5.596;2023-11-19T05:21:34;53.50;;;34.42;;
19521;SDS011;9905;52.126;5.596;2023-11-19T05:24:01;37.05;;;33.25;;
19521;SDS011;9905;52.126;5.596;2023-11-19T05:26:29;42.92;;;31.35;;
19521;SDS011;9905;52.126;5.596;2023-11-19T05:28:56;43.75;;;32.72;;
19521;SDS011;9905;52.126;5.596;2023-11-19T05:31:23;50.72;;;31.65;;
19521;SDS011;9905;52.126;5.596;2023-11-19T05:33:50;46.03;;;32.05;;
19521;SDS011;9905;52.126;5.596;2023-11-19T05:36:17;41.78;;;31.38;;
19521;SDS011;9905;52.126;5.596;2023-11-19T05:38:45;42.47;;;31.58;;
19521;SDS011;9905;52.126;5.596;2023-11-19T05:41:11;43.42;;;30.52;;
19521;SDS011;9905;52.126;5.596;2023-11-19T05:43:38;38.88;;;30.52;;
19521;SDS011;9905;52.126;5.596;2023-11-19T05:46:06;38.95;;;30.35;;
19521;SDS011;9905;52.126;5.596;2023-11-19T05:48:34;43.65;;;30.38;;
19521;SDS011;9905;52.126;5.596;2023-11-19T05:51:00;48.65;;;29.42;;
19521;SDS011;9905;52.126;5.596;2023-11-19T05:53:28;36.38;;;30.70;;
19521;SDS011;9905;52.126;5.596;2023-11-19T05:55:56;42.85;;;31.05;;
19521;SDS011;9905;52.126;5.596;2023-11-19T05:58:23;39.17;;;28.95;;
19521;SDS011;9905;52.126;5.596;2023-11-19T06:00:53;45.42;;;29.48;;
19521;SDS011;9905;52.126;5.596;2023-11-19T06:03:20;43.03;;;30.35;;
19521;SDS011;9905;52.126;5.596;2023-11-19T06:05:47;33.47;;;29.35;;
19521;SDS011;9905;52.126;5.596;2023-11-19T06:08:14;43.63;;;30.55;;
19521;SDS011;9905;52.126;5.596;2023-11-19T06:10:41;46.55;;;29.40;;
19521;SDS011;9905;52.126;5.596;2023-11-19T06:13:10;39.35;;;30.23;;
19521;SDS011;9905;52.126;5.596;2023-11-19T06:15:36;46.88;;;31.00;;
19521;SDS011;9905;52.126;5.596;2023-11-19T06:18:03;51.40;;;30.35;;
19521;SDS011;9905;52.126;5.596;2023-11-19T06:20:30;50.17;;;30.70;;
19521;SDS011;9905;52.126;5.596;2023-11-19T06:22:59;40.13;;;30.55;;
19521;SDS011;9905;52.126;5.596;2023-11-19T06:25:26;45.35;;;29.38;;
19521;SDS011;9905;52.126;5.596;2023-11-19T06:27:53;43.42;;;30.77;;
19521;SDS011;9905;52.126;5.596;2023-11-19T06:30:21;50.78;;;31.13;;
19521;SDS011;9905;52.126;5.596;2023-11-19T06:32:47;38.47;;;29.90;;
19521;SDS011;9905;52.126;5.596;2023-11-19T06:35:14;44.03;;;29.27;;
19521;SDS011;9905;52.126;5.596;2023-11-19T06:37:41;40.90;;;28.90;;
19521;SDS011;9905;52.126;5.596;2023-11-19T06:40:08;46.45;;;28.70;;
19521;SDS011;9905;52.126;5.596;2023-11-19T06:42:37;42.80;;;29.67;;
19521;SDS011;9905;52.126;5.596;2023-11-19T06:45:04;37.25;;;29.33;;
19521;SDS011;9905;52.126;5.596;2023-11-19T06:47:33;45.50;;;29.60;;
19521;SDS011;9905;52.126;5.596;2023-11-19T06:50:00;34.20;;;29.63;;
19521;SDS011;9905;52.126;5.596;2023-11-19T06:52:30;42.50;;;30.60;;
19521;SDS011;9905;52.126;5.596;2023-11-19T06:54:57;50.47;;;30.67;;
19521;SDS011;9905;52.126;5.596;2023-11-19T06:57:24;47.47;;;32.17;;
19521;SDS011;9905;52.126;5.596;2023-11-19T06:59:51;41.20;;;29.75;;
19521;SDS011;9905;52.126;5.596;2023-11-19T07:02:17;34.65;;;30.13;;
19521;SDS011;9905;52.126;5.596;2023-11-19T07:04:45;51.45;;;29.75;;
19521;SDS011;9905;52.126;5.596;2023-11-19T07:07:13;53.92;;;32.10;;
19521;SDS011;9905;52.126;5.596;2023-11-19T07:09:40;51.15;;;32.70;;
19521;SDS011;9905;52.126;5.596;2023-11-19T07:12:07;45.17;;;31.73;;
19521;SDS011;9905;52.126;5.596;2023-11-19T07:14:34;38.97;;;32.60;;
19521;SDS011;9905;52.126;5.596;2023-11-19T07:17:01;38.85;;;30.70;;
19521;SDS011;9905;52.126;5.596;2023-11-19T07:19:28;45.97;;;32.40;;
19521;SDS011;9905;52.126;5.596;2023-11-19T07:21:56;48.67;;;32.67;;
19521;SDS011;9905;52.126;5.596;2023-11-19T07:24:23;42.03;;;30.88;;
19521;SDS011;9905;52.126;5.596;2023-11-19T07:26:49;50.58;;;33.33;;
19521;SDS011;9905;52.126;5.596;2023-11-19T07:29:17;43.67;;;31.85;;
19521;SDS011;9905;52.126;5.596;2023-11-19T07:31:43;43.50;;;32.33;;
19521;SDS011;9905;52.126;5.596;2023-11-19T07:34:10;47.15;;;33.28;;
19521;SDS011;9905;52.126;5.596;2023-11-19T07:36:37;49.28;;;32.53;;
19521;SDS011;9905;52.126;5.596;2023-11-19T07:39:05;49.05;;;31.90;;
19521;SDS011;9905;52.126;5.596;2023-11-19T07:41:33;41.47;;;31.77;;
19521;SDS011;9905;52.126;5.596;2023-11-19T07:44:00;46.38;;;32.70;;
19521;SDS011;9905;52.126;5.596;2023-11-19T07:46:27;54.05;;;31.75;;
19521;SDS011;9905;52.126;5.596;2023-11-19T07:48:53;54.00;;;32.42;;
19521;SDS011;9905;52.126;5.596;2023-11-19T07:51:20;36.70;;;31.25;;
19521;SDS011;9905;52.126;5.596;2023-11-19T07:53:47;42.72;;;31.45;;
19521;SDS011;9905;52.126;5.596;2023-11-19T07:56:15;48.83;;;31.85;;
19521;SDS011;9905;52.126;5.596;2023-11-19T07:58:42;49.08;;;31.10;;
19521;SDS011;9905;52.126;5.596;2023-11-19T08:01:09;44.67;;;30.42;;
19521;SDS011;9905;52.126;5.596;2023-11-19T08:03:35;52.00;;;30.75;;
19521;SDS011;9905;52.126;5.596;2023-11-19T08:06:03;44.83;;;29.88;;
19521;SDS011;9905;52.126;5.596;2023-11-19T08:08:30;46.30;;;31.33;;
19521;SDS011;9905;52.126;5.596;2023-11-19T08:10:58;43.83;;;30.20;;
19521;SDS011;9905;52.126;5.596;2023-11-19T08:13:26;38.03;;;29.58;;
19521;SDS011;9905;52.126;5.596;2023-11-19T08:15:53;38.40;;;31.52;;
19521;SDS011;9905;52.126;5.596;2023-11-19T08:18:20;46.70;;;30.60;;
19521;SDS011;9905;52.126;5.596;2023-11-19T08:20:47;45.05;;;31.50;;
19521;SDS011;9905;52.126;5.596;2023-11-19T08:23:17;46.78;;;30.20;;
19521;SDS011;9905;52.126;5.596;2023-11-19T08:25:44;41.63;;;30.83;;
19521;SDS011;9905;52.126;5.596;2023-11-19T08:28:11;41.47;;;31.33;;
19521;SDS011;9905;52.126;5.596;2023-11-19T08:30:39;44.67;;;28.77;;
19521;SDS011;9905;52.126;5.596;2023-11-19T08:33:06;44.15;;;30.58;;
19521;SDS011;9905;52.126;5.596;2023-11-19T08:35:33;40.63;;;30.13;;
19521;SDS011;9905;52.126;5.596;2023-11-19T08:37:59;45.92;;;31.38;;
19521;SDS011;9905;52.126;5.596;2023-11-19T08:40:26;44.97;;;28.50;;
19521;SDS011;9905;52.126;5.596;2023-11-19T08:42:54;41.92;;;28.80;;
19521;SDS011;9905;52.126;5.596;2023-11-19T08:45:21;38.92;;;30.75;;
19521;SDS011;9905;52.126;5.596;2023-11-19T08:47:49;44.35;;;29.40;;
19521;SDS011;9905;52.126;5.596;2023-11-19T08:50:16;38.03;;;28.35;;
19521;SDS011;9905;52.126;5.596;2023-11-19T08:52:43;46.88;;;27.13;;
19521;SDS011;9905;52.126;5.596;2023-11-19T08:55:10;40.50;;;25.90;;
19521;SDS011;9905;52.126;5.596;2023-11-19T08:57:38;43.60;;;28.13;;
19521;SDS011;9905;52.126;5.596;2023-11-19T09:00:06;45.50;;;26.77;;
19521;SDS011;9905;52.126;5.596;2023-11-19T09:02:33;37.78;;;25.67;;
19521;SDS011;9905;52.126;5.596;2023-11-19T09:05:01;41.83;;;27.45;;
19521;SDS011;9905;52.126;5.596;2023-11-19T09:07:28;35.95;;;24.85;;
19521;SDS011;9905;52.126;5.596;2023-11-19T09:09:55;37.92;;;25.98;;
19521;SDS011;9905;52.126;5.596;2023-11-19T09:12:22;39.25;;;25.88;;
19521;SDS011;9905;52.126;5.596;2023-11-19T09:14:49;38.05;;;23.85;;
19521;SDS011;9905;52.126;5.596;2023-11-19T09:17:15;33.15;;;22.27;;
19521;SDS011;9905;52.126;5.596;2023-11-19T09:19:43;30.83;;;23.45;;
19521;SDS011;9905;52.126;5.596;2023-11-19T09:22:12;35.17;;;21.77;;
19521;SDS011;9905;52.126;5.596;2023-11-19T09:24:39;34.20;;;21.77;;
19521;SDS011;9905;52.126;5.596;2023-11-19T09:27:06;37.33;;;19.88;;
19521;SDS011;9905;52.126;5.596;2023-11-19T09:29:33;38.50;;;20.38;;
19521;SDS011;9905;52.126;5.596;2023-11-19T09:31:59;35.75;;;20.45;;
19521;SDS011;9905;52.126;5.596;2023-11-19T09:34:26;36.92;;;22.02;;
19521;SDS011;9905;52.126;5.596;2023-11-19T09:36:53;36.08;;;20.05;;
19521;SDS011;9905;52.126;5.596;2023-11-19T09:39:22;34.08;;;19.88;;
19521;SDS011;9905;52.126;5.596;2023-11-19T09:41:50;36.63;;;20.50;;
19521;SDS011;9905;52.126;5.596;2023-11-19T09:44:17;36.42;;;18.52;;
19521;SDS011;9905;52.126;5.596;2023-11-19T09:46:44;37.60;;;19.33;;
19521;SDS011;9905;52.126;5.596;2023-11-19T09:49:13;32.20;;;19.67;;
19521;SDS011;9905;52.126;5.596;2023-11-19T09:51:43;32.25;;;21.23;;
19521;SDS011;9905;52.126;5.596;2023-11-19T09:54:10;36.05;;;20.45;;
19521;SDS011;9905;52.126;5.596;2023-11-19T09:56:40;35.90;;;19.70;;
19521;SDS011;9905;52.126;5.596;2023-11-19T09:59:07;29.05;;;17.55;;
19521;SDS011;9905;52.126;5.596;2023-11-19T10:01:36;38.80;;;19.42;;
19521;SDS011;9905;52.126;5.596;2023-11-19T10:04:04;38.00;;;19.52;;
19521;SDS011;9905;52.126;5.596;2023-11-19T10:06:31;35.42;;;19.58;;
19521;SDS011;9905;52.126;5.596;2023-11-19T10:08:58;27.63;;;17.60;;
19521;SDS011;9905;52.126;5.596;2023-11-19T10:11:25;33.72;;;18.73;;
19521;SDS011;9905;52.126;5.596;2023-11-19T10:13:54;22.00;;;15.85;;
19521;SDS011;9905;52.126;5.596;2023-11-19T10:16:27;31.05;;;15.88;;
19521;SDS011;9905;52.126;5.596;2023-11-19T10:18:56;29.55;;;17.63;;
19521;SDS011;9905;52.126;5.596;2023-11-19T10:21:23;26.88;;;16.90;;
19521;SDS011;9905;52.126;5.596;2023-11-19T10:23:50;31.70;;;16.75;;
19521;SDS011;9905;52.126;5.596;2023-11-19T10:26:18;33.80;;;16.90;;
19521;SDS011;9905;52.126;5.596;2023-11-19T10:28:47;34.78;;;16.63;;
19521;SDS011;9905;52.126;5.596;2023-11-19T10:31:15;33.10;;;16.60;;
19521;SDS011;9905;52.126;5.596;2023-11-19T10:33:43;32.47;;;16.27;;
19521;SDS011;9905;52.126;5.596;2023-11-19T10:36:10;31.27;;;16.63;;
19521;SDS011;9905;52.126;5.596;2023-11-19T10:38:38;26.40;;;14.98;;
19521;SDS011;9905;52.126;5.596;2023-11-19T10:41:05;26.27;;;13.73;;
19521;SDS011;9905;52.126;5.596;2023-11-19T10:43:42;29.10;;;14.30;;
19521;SDS011;9905;52.126;5.596;2023-11-19T10:46:09;34.13;;;12.93;;
19521;SDS011;9905;52.126;5.596;2023-11-19T10:48:38;30.83;;;12.80;;
19521;SDS011;9905;52.126;5.596;2023-11-19T10:51:06;27.20;;;12.90;;
19521;SDS011;9905;52.126;5.596;2023-11-19T10:53:33;26.42;;;13.82;;
19521;SDS011;9905;52.126;5.596;2023-11-19T10:56:04;27.77;;;12.82;;
19521;SDS011;9905;52.126;5.596;2023-11-19T10:58:36;20.58;;;13.20;;
19521;SDS011;9905;52.126;5.596;2023-11-19T11:01:06;32.70;;;13.38;;
19521;SDS011;9905;52.126;5.596;2023-11-19T11:03:39;32.75;;;13.05;;
19521;SDS011;9905;52.126;5.596;2023-11-19T11:06:06;37.97;;;13.27;;
19521;SDS011;9905;52.126;5.596;2023-11-19T11:08:34;27.08;;;13.40;;
19521;SDS011;9905;52.126;5.596;2023-11-19T11:11:04;30.67;;;12.23;;
19521;SDS011;9905;52.126;5.596;2023-11-19T11:13:31;31.52;;;12.75;;
19521;SDS011;9905;52.126;5.596;2023-11-19T11:15:59;28.27;;;12.38;;
19521;SDS011;9905;52.126;5.596;2023-11-19T11:18:26;27.40;;;11.90;;
19521;SDS011;9905;52.126;5.596;2023-11-19T11:20:56;27.05;;;12.10;;
19521;SDS011;9905;52.126;5.596;2023-11-19T11:23:33;26.70;;;11.32;;
19521;SDS011;9905;52.126;5.596;2023-11-19T11:26:16;26.85;;;11.05;;
19521;SDS011;9905;52.126;5.596;2023-11-19T11:28:56;22.80;;;10.20;;
19521;SDS011;9905;52.126;5.596;2023-11-19T11:31:31;29.95;;;10.80;;
19521;SDS011;9905;52.126;5.596;2023-11-19T11:34:09;26.90;;;11.07;;
19521;SDS011;9905;52.126;5.596;2023-11-19T11:36:57;20.45;;;9.35;;
19521;SDS011;9905;52.126;5.596;2023-11-19T11:39:32;22.08;;;11.32;;
19521;SDS011;9905;52.126;5.596;2023-11-19T11:42:30;24.27;;;10.52;;
19521;SDS011;9905;52.126;5.596;2023-11-19T11:45:01;30.65;;;11.23;;
19521;SDS011;9905;52.126;5.596;2023-11-19T11:50:31;24.88;;;10.75;;
19521;SDS011;9905;52.126;5.596;2023-11-19T11:53:15;20.27;;;10.30;;
19521;SDS011;9905;52.126;5.596;2023-11-19T11:55:55;26.95;;;10.85;;
19521;SDS011;9905;52.126;5.596;2023-11-19T11:58:31;28.38;;;11.65;;
19521;SDS011;9905;52.126;5.596;2023-11-19T12:01:01;26.27;;;10.50;;
19521;SDS011;9905;52.126;5.596;2023-11-19T12:03:30;25.15;;;10.35;;
19521;SDS011;9905;52.126;5.596;2023-11-19T12:05:57;21.55;;;9.82;;
19521;SDS011;9905;52.126;5.596;2023-11-19T12:08:27;20.23;;;9.90;;
19521;SDS011;9905;52.126;5.596;2023-11-19T12:10:55;24.67;;;10.55;;
19521;SDS011;9905;52.126;5.596;2023-11-19T12:13:24;28.98;;;10.10;;
19521;SDS011;9905;52.126;5.596;2023-11-19T12:16:06;14.85;;;7.90;;
19521;SDS011;9905;52.126;5.596;2023-11-19T12:18:33;25.63;;;9.63;;
19521;SDS011;9905;52.126;5.596;2023-11-19T12:21:00;18.73;;;8.70;;
19521;SDS011;9905;52.126;5.596;2023-11-19T12:23:29;19.40;;;8.63;;
19521;SDS011;9905;52.126;5.596;2023-11-19T12:25:56;22.10;;;8.55;;
19521;SDS011;9905;52.126;5.596;2023-11-19T12:28:23;17.67;;;9.13;;
19521;SDS011;9905;52.126;5.596;2023-11-19T12:30:51;18.45;;;9.40;;
19521;SDS011;9905;52.126;5.596;2023-11-19T12:33:19;16.38;;;8.60;;
19521;SDS011;9905;52.126;5.596;2023-11-19T12:35:47;18.55;;;8.25;;
19521;SDS011;9905;52.126;5.596;2023-11-19T12:38:20;19.23;;;7.93;;
19521;SDS011;9905;52.126;5.596;2023-11-19T12:40:49;16.92;;;8.35;;
19521;SDS011;9905;52.126;5.596;2023-11-19T12:43:28;19.38;;;8.55;;
19521;SDS011;9905;52.126;5.596;2023-11-19T12:45:55;26.15;;;8.85;;
19521;SDS011;9905;52.126;5.596;2023-11-19T12:48:22;17.08;;;8.35;;
19521;SDS011;9905;52.126;5.596;2023-11-19T12:50:51;27.00;;;8.45;;
19521;SDS011;9905;52.126;5.596;2023-11-19T12:53:19;18.20;;;8.00;;
19521;SDS011;9905;52.126;5.596;2023-11-19T12:55:48;20.13;;;8.35;;
19521;SDS011;9905;52.126;5.596;2023-11-19T12:58:28;17.67;;;8.85;;
19521;SDS011;9905;52.126;5.596;2023-11-19T13:00:59;26.90;;;8.95;;
19521;SDS011;9905;52.126;5.596;2023-11-19T13:03:29;15.48;;;8.23;;
19521;SDS011;9905;52.126;5.596;2023-11-19T13:06:03;18.67;;;8.45;;
19521;SDS011;9905;52.126;5.596;2023-11-19T13:08:36;22.92;;;8.77;;
19521;SDS011;9905;52.126;5.596;2023-11-19T13:11:05;17.38;;;8.10;;
19521;SDS011;9905;52.126;5.596;2023-11-19T13:16:21;16.65;;;7.82;;
19521;SDS011;9905;52.126;5.596;2023-11-19T13:18:48;17.70;;;8.85;;
19521;SDS011;9905;52.126;5.596;2023-11-19T13:21:15;16.90;;;8.95;;
19521;SDS011;9905;52.126;5.596;2023-11-19T13:23:42;26.50;;;9.60;;
19521;SDS011;9905;52.126;5.596;2023-11-19T13:26:10;21.98;;;9.15;;
19521;SDS011;9905;52.126;5.596;2023-11-19T13:28:37;18.65;;;10.05;;
19521;SDS011;9905;52.126;5.596;2023-11-19T13:31:04;20.52;;;9.52;;
19521;SDS011;9905;52.126;5.596;2023-11-19T13:33:31;26.05;;;9.90;;
19521;SDS011;9905;52.126;5.596;2023-11-19T13:35:58;20.38;;;10.40;;
19521;SDS011;9905;52.126;5.596;2023-11-19T13:38:30;26.15;;;10.13;;
19521;SDS011;9905;52.126;5.596;2023-11-19T13:40:57;23.75;;;10.55;;
19521;SDS011;9905;52.126;5.596;2023-11-19T13:43:25;30.00;;;12.07;;
19521;SDS011;9905;52.126;5.596;2023-11-19T13:45:53;24.15;;;11.07;;
19521;SDS011;9905;52.126;5.596;2023-11-19T13:48:19;23.67;;;12.27;;
19521;SDS011;9905;52.126;5.596;2023-11-19T13:50:46;29.02;;;12.60;;
19521;SDS011;9905;52.126;5.596;2023-11-19T13:53:13;27.27;;;12.27;;
19521;SDS011;9905;52.126;5.596;2023-11-19T13:55:40;29.55;;;13.23;;
19521;SDS011;9905;52.126;5.596;2023-11-19T13:58:07;23.05;;;12.70;;
19521;SDS011;9905;52.126;5.596;2023-11-19T14:00:35;26.42;;;12.77;;
19521;SDS011;9905;52.126;5.596;2023-11-19T14:03:03;18.77;;;11.60;;
19521;SDS011;9905;52.126;5.596;2023-11-19T14:05:29;23.42;;;12.98;;
19521;SDS011;9905;52.126;5.596;2023-11-19T14:07:56;23.63;;;14.45;;
19521;SDS011;9905;52.126;5.596;2023-11-19T14:10:23;19.58;;;13.15;;
19521;SDS011;9905;52.126;5.596;2023-11-19T14:12:50;21.35;;;14.07;;
19521;SDS011;9905;52.126;5.596;2023-11-19T14:15:17;13.93;;;11.85;;
19521;SDS011;9905;52.126;5.596;2023-11-19T14:17:45;24.20;;;12.85;;
19521;SDS011;9905;52.126;5.596;2023-11-19T14:20:12;25.77;;;14.27;;
19521;SDS011;9905;52.126;5.596;2023-11-19T14:22:40;23.77;;;12.43;;
19521;SDS011;9905;52.126;5.596;2023-11-19T14:25:08;21.17;;;13.02;;
19521;SDS011;9905;52.126;5.596;2023-11-19T14:27:35;21.50;;;13.00;;
19521;SDS011;9905;52.126;5.596;2023-11-19T14:30:04;25.90;;;13.40;;
19521;SDS011;9905;52.126;5.596;2023-11-19T14:32:31;20.30;;;14.07;;
19521;SDS011;9905;52.126;5.596;2023-11-19T14:34:59;24.05;;;13.85;;
19521;SDS011;9905;52.126;5.596;2023-11-19T14:37:26;24.63;;;14.20;;
19521;SDS011;9905;52.126;5.596;2023-11-19T14:39:53;24.25;;;14.23;;
19521;SDS011;9905;52.126;5.596;2023-11-19T14:42:20;23.65;;;15.60;;
19521;SDS011;9905;52.126;5.596;2023-11-19T14:44:47;22.42;;;14.80;;
19521;SDS011;9905;52.126;5.596;2023-11-19T14:47:14;26.83;;;16.00;;